Time;durP1;ratioP1;P1;durP2;ratioP2;P2;SDS_P1;SDS_P2;PMS_P1;PMS_P2;Temp;Humidity;BMP_temperature;BMP_pressure;BME280_temperature;BME280_humidity;BME280_pressure;Samples;Min_cycle;Max_cycle;Signal;HPM_P1;HPM_P2
2023/02/12 00:01:43;;;;;;;62.30;32.88;;;;;;;4.91;100.00;100461.44;15303496;19;20017;-80
2023/02/12 00:07:24;;;;;;;59.25;32.58;;;;;;;4.93;100.00;100459.56;15301242;19;20011;-80
2023/02/12 00:12:55;;;;;;;56.47;30.33;;;;;;;4.92;100.00;100471.16;15307873;19;20010;-80
2023/02/12 00:18:20;;;;;;;57.58;31.60;;;;;;;4.92;100.00;100459.63;15299569;19;20019;-80
2023/02/12 00:23:45;;;;;;;50.78;29.40;;;;;;;4.94;100.00;100461.28;15308369;19;20524;-80
2023/02/12 00:29:36;;;;;;;53.15;30.52;;;;;;;4.94;100.00;100460.41;15313329;19;20007;-78
2023/02/12 00:35:01;;;;;;;52.55;30.20;;;;;;;4.90;100.00;100466.84;15307061;19;20022;-80
2023/02/12 00:40:27;;;;;;;58.25;31.60;;;;;;;4.89;100.00;100478.47;15303270;19;20022;-79
2023/02/12 00:45:58;;;;;;;57.13;30.42;;;;;;;4.91;100.00;100484.63;15316482;19;20347;-78
2023/02/12 00:51:23;;;;;;;54.72;29.67;;;;;;;4.91;100.00;100480.13;15317287;19;20002;-80
2023/02/12 00:56:48;;;;;;;51.47;28.75;;;;;;;4.87;100.00;100483.00;15319758;19;20006;-79
2023/02/12 01:02:39;;;;;;;54.80;29.92;;;;;;;4.85;100.00;100464.41;15309115;19;20013;-79
2023/02/12 01:08:27;;;;;;;53.03;28.52;;;;;;;4.86;100.00;100466.13;15324651;19;20019;-79
2023/02/12 01:13:55;;;;;;;54.15;29.08;;;;;;;4.83;100.00;100474.28;15315690;19;20487;-80
2023/02/12 01:19:27;;;;;;;57.85;29.52;;;;;;;4.85;100.00;100479.56;15312049;19;20018;-80
2023/02/12 01:24:56;;;;;;;55.35;29.17;;;;;;;4.87;100.00;100486.56;15329204;19;20027;-83
2023/02/12 01:30:23;;;;;;;47.90;27.13;;;;;;;4.86;100.00;100486.63;15323242;19;20011;-81
2023/02/12 01:35:54;;;;;;;46.35;27.25;;;;;;;4.85;100.00;100499.13;15343462;19;20034;-81
2023/02/12 01:41:25;;;;;;;43.90;26.42;;;;;;;4.86;100.00;100498.19;15302224;19;20007;-81
2023/02/12 01:46:52;;;;;;;42.67;25.60;;;;;;;4.86;100.00;100484.84;15299887;19;20039;-82
2023/02/12 01:52:26;;;;;;;40.47;23.75;;;;;;;4.87;100.00;100483.91;15299273;19;20015;-81
2023/02/12 01:57:56;;;;;;;39.33;23.65;;;;;;;4.84;100.00;100478.69;15293192;19;20047;-81
2023/02/12 02:03:22;;;;;;;40.90;23.90;;;;;;;4.83;100.00;100473.41;15293186;19;20023;-80
2023/02/12 02:08:57;;;;;;;41.20;24.08;;;;;;;4.84;100.00;100472.47;15291318;19;20662;-81
2023/02/12 02:20:24;;;;;;;44.28;23.90;;;;;;;4.82;100.00;100480.56;15295916;19;20010;-81
2023/02/12 02:26:20;;;;;;;43.38;24.17;;;;;;;4.84;100.00;100472.47;15297429;19;20030;-82
2023/02/12 02:31:54;;;;;;;48.15;25.90;;;;;;;4.83;100.00;100470.75;15302578;19;20026;-81
2023/02/12 02:37:24;;;;;;;48.05;25.70;;;;;;;4.83;100.00;100470.75;15297964;19;20035;-80
2023/02/12 02:42:55;;;;;;;58.03;28.20;;;;;;;4.83;100.00;100460.06;15321788;19;20014;-81
2023/02/12 02:48:31;;;;;;;58.00;27.27;;;;;;;4.83;100.00;100463.59;15317671;19;20096;-82
2023/02/12 02:54:02;;;;;;;51.65;27.90;;;;;;;4.84;100.00;100462.69;15326228;19;20039;-82
2023/02/12 02:59:47;;;;;;;60.65;29.98;;;;;;;4.83;100.00;100466.28;15337162;19;20015;-82
2023/02/12 03:05:33;;;;;;;57.72;28.92;;;;;;;4.85;100.00;100459.06;15330149;19;20006;-81
2023/02/12 03:11:06;;;;;;;64.15;30.17;;;;;;;4.87;100.00;100475.88;15303123;19;20018;-81
2023/02/12 03:16:37;;;;;;;59.60;29.25;;;;;;;4.86;100.00;100474.16;15304685;19;20011;-80
2023/02/12 03:22:24;;;;;;;55.03;28.48;;;;;;;4.86;100.00;100481.28;15300174;19;20011;-80
2023/02/12 03:27:54;;;;;;;61.45;30.83;;;;;;;4.88;100.00;100490.94;15301839;19;20092;-80
2023/02/12 03:33:24;;;;;;;55.85;29.83;;;;;;;4.92;100.00;100500.56;15301848;19;20017;-79
2023/02/12 03:38:57;;;;;;;48.77;28.40;;;;;;;4.98;100.00;100502.06;15302831;19;20031;-80
2023/02/12 03:44:35;;;;;;;47.33;28.23;;;;;;;5.03;100.00;100504.50;15298707;19;20347;-79
2023/02/12 03:50:10;;;;;;;46.13;27.38;;;;;;;5.04;100.00;100501.78;15331684;19;20379;-80
2023/02/12 03:55:43;;;;;;;41.70;25.85;;;;;;;5.04;100.00;100509.78;15300867;19;20502;-81
2023/02/12 04:01:09;;;;;;;40.15;25.42;;;;;;;5.07;100.00;100508.78;15288317;19;20007;-81
2023/02/12 04:06:34;;;;;;;43.08;26.73;;;;;;;5.09;100.00;100518.44;15293787;19;20033;-80
2023/02/12 04:12:16;;;;;;;40.45;25.40;;;;;;;5.10;100.00;100522.00;15291941;19;20018;-81
2023/02/12 04:17:50;;;;;;;42.70;25.95;;;;;;;5.07;100.00;100527.47;15301903;19;20077;-81
2023/02/12 04:23:22;;;;;;;38.05;24.73;;;;;;;5.09;100.00;100528.28;15297647;19;20510;-82
2023/02/12 04:28:59;;;;;;;42.55;25.55;;;;;;;5.07;100.00;100538.16;15302189;19;20015;-81
2023/02/12 04:34:32;;;;;;;44.20;26.60;;;;;;;5.06;100.00;100541.78;15343351;19;20010;-83
2023/02/12 04:40:00;;;;;;;48.10;27.75;;;;;;;5.07;100.00;100548.84;15298654;19;20022;-81
2023/02/12 04:45:31;;;;;;;47.00;27.42;;;;;;;5.06;100.00;100542.63;15297099;19;20015;-81
2023/02/12 04:50:57;;;;;;;51.00;29.08;;;;;;;5.07;100.00;100548.84;15285476;19;20018;-80
2023/02/12 04:56:22;;;;;;;60.40;30.35;;;;;;;5.03;100.00;100552.59;15292248;19;20010;-80
2023/02/12 05:01:49;;;;;;;63.83;33.13;;;;;;;5.01;100.00;100549.13;15287387;19;20039;-80
2023/02/12 05:07:21;;;;;;;75.15;33.53;;;;;;;5.02;100.00;100553.53;15286387;19;20043;-80
2023/02/12 05:12:46;;;;;;;72.27;33.33;;;;;;;5.00;100.00;100550.94;15301240;19;20026;-82
2023/02/12 05:18:13;;;;;;;95.40;36.30;;;;;;;5.00;100.00;100550.09;15295246;19;20020;-83
2023/02/12 05:23:40;;;;;;;98.10;35.38;;;;;;;4.99;100.00;100557.22;15298214;19;20017;-81
2023/02/12 05:29:04;;;;;;;82.43;35.45;;;;;;;5.00;100.00;100547.44;15299455;19;20077;-83
2023/02/12 05:34:32;;;;;;;88.97;35.83;;;;;;;5.00;100.00;100555.44;15305913;19;20081;-81
2023/02/12 05:39:58;;;;;;;73.70;36.00;;;;;;;5.04;100.00;100554.34;15301298;19;20022;-81
2023/02/12 05:45:26;;;;;;;76.45;35.40;;;;;;;5.02;100.00;100546.41;15292993;19;20006;-80
2023/02/12 05:50:55;;;;;;;71.95;34.17;;;;;;;5.00;100.00;100552.78;15291233;19;20031;-80
2023/02/12 05:56:23;;;;;;;77.05;34.38;;;;;;;5.01;100.00;100549.13;15292392;19;20377;-80
2023/02/12 06:01:51;;;;;;;80.82;34.72;;;;;;;5.00;100.00;100553.63;15284538;19;20019;-79
2023/02/12 06:07:26;;;;;;;69.68;33.33;;;;;;;5.01;100.00;100554.47;15282209;19;20019;-81
2023/02/12 06:12:55;;;;;;;73.30;32.10;;;;;;;5.00;100.00;100564.31;15286584;19;20051;-79
2023/02/12 06:18:20;;;;;;;94.35;35.47;;;;;;;4.94;100.00;100556.56;15283396;19;20013;-78
2023/02/12 06:23:48;;;;;;;114.50;36.03;;;;;;;4.90;100.00;100563.88;15287971;19;20019;-78
2023/02/12 06:29:13;;;;;;;93.25;35.53;;;;;;;4.89;100.00;100578.16;15287302;19;20025;-77
2023/02/12 06:34:38;;;;;;;156.88;39.20;;;;;;;4.86;100.00;100583.66;15286996;19;20014;-78
2023/02/12 06:40:05;;;;;;;122.35;38.80;;;;;;;4.85;100.00;100581.94;15298461;19;20007;-81
2023/02/12 06:45:30;;;;;;;102.18;39.10;;;;;;;4.87;100.00;100589.88;15286420;19;20374;-79
2023/02/12 06:50:54;;;;;;;145.50;39.72;;;;;;;4.86;100.00;100599.69;15291406;19;20097;-81
2023/02/12 06:56:22;;;;;;;119.80;39.15;;;;;;;4.89;100.00;100610.22;15292576;19;20078;-80
2023/02/12 07:01:47;;;;;;;144.80;41.05;;;;;;;4.90;100.00;100614.63;15288597;19;20019;-79
2023/02/12 07:07:20;;;;;;;245.30;44.95;;;;;;;4.90;100.00;100617.28;15310544;19;20454;-78
2023/02/12 07:12:48;;;;;;;752.47;51.75;;;;;;;4.87;100.00;100620.13;15311521;19;20014;-78
2023/02/12 07:18:13;;;;;;;707.63;52.60;;;;;;;4.86;100.00;100633.53;15295961;19;20033;-79
2023/02/12 07:23:45;;;;;;;751.05;55.55;;;;;;;4.84;100.00;100638.06;15288807;19;20018;-78
2023/02/12 07:29:12;;;;;;;531.53;50.05;;;;;;;4.85;100.00;100643.38;15305824;19;20046;-78
2023/02/12 07:34:40;;;;;;;451.80;45.10;;;;;;;4.87;100.00;100641.50;15323165;19;20010;-76
2023/02/12 07:40:07;;;;;;;894.95;53.28;;;;;;;4.89;100.00;100652.09;15335309;19;20017;-76
2023/02/12 07:45:34;;;;;;;1072.25;57.05;;;;;;;4.86;100.00;100658.47;15295595;19;20022;-77
2023/02/12 07:50:59;;;;;;;648.22;44.80;;;;;;;4.90;100.00;100660.03;15302270;19;20098;-76
2023/02/12 07:56:29;;;;;;;800.65;49.63;;;;;;;4.94;100.00;100660.75;15324270;19;20011;-77
2023/02/12 08:01:59;;;;;;;671.20;46.97;;;;;;;4.99;100.00;100663.25;15298463;19;20043;-77
2023/02/12 08:07:31;;;;;;;469.10;40.22;;;;;;;5.01;100.00;100662.22;15298269;19;20304;-77
2023/02/12 08:12:56;;;;;;;706.13;47.13;;;;;;;5.04;100.00;100670.13;15305009;19;20026;-76
2023/02/12 08:18:23;;;;;;;679.15;45.30;;;;;;;5.10;100.00;100668.97;15299256;19;20590;-78
2023/02/12 08:23:49;;;;;;;429.15;41.85;;;;;;;5.15;100.00;100668.75;15296956;19;20015;-77
2023/02/12 08:29:17;;;;;;;679.38;48.20;;;;;;;5.21;100.00;100676.47;15292739;19;20454;-77
2023/02/12 08:34:45;;;;;;;496.35;45.17;;;;;;;5.24;100.00;100684.34;15296510;19;20060;-78
2023/02/12 08:40:12;;;;;;;311.35;44.42;;;;;;;5.30;100.00;100683.19;15287371;19;20779;-79
2023/02/12 08:45:37;;;;;;;372.25;44.33;;;;;;;5.36;100.00;100690.91;15283069;19;20510;-79
2023/02/12 08:51:04;;;;;;;114.95;35.85;;;;;;;5.40;100.00;100692.50;15280969;19;20031;-79
2023/02/12 08:56:31;;;;;;;200.13;35.53;;;;;;;5.44;100.00;100702.13;15295737;19;20014;-80
2023/02/12 09:01:59;;;;;;;371.58;39.03;;;;;;;5.47;100.00;100706.47;15281476;19;20015;-78
2023/02/12 09:07:26;;;;;;;353.88;39.95;;;;;;;5.51;100.00;100703.56;15286762;19;20615;-80
2023/02/12 09:12:51;;;;;;;95.93;31.35;;;;;;;5.56;100.00;100708.69;15292122;19;20013;-81
2023/02/12 09:18:17;;;;;;;59.97;27.90;;;;;;;5.61;100.00;100708.47;15288654;19;20499;-81
2023/02/12 09:23:45;;;;;;;52.58;29.13;;;;;;;5.66;100.00;100718.00;15280492;19;20015;-79
2023/02/12 09:29:10;;;;;;;63.08;27.63;;;;;;;5.68;100.00;100715.28;15285065;19;20266;-79
2023/02/12 09:34:34;;;;;;;60.17;26.35;;;;;;;5.69;100.00;100723.22;15295815;19;20017;-79
2023/02/12 09:40:01;;;;;;;57.40;26.67;;;;;;;5.68;100.00;100728.66;15285877;19;20055;-78
2023/02/12 09:45:29;;;;;;;55.85;27.13;;;;;;;5.70;100.00;100737.47;15285218;19;20663;-77
2023/02/12 09:50:56;;;;;;;72.38;27.55;;;;;;;5.69;100.00;100749.13;15255197;19;20111;-77
2023/02/12 09:56:26;;;;;;;83.68;28.65;;;;;;;5.71;100.00;100741.88;15280834;19;20089;-82
2023/02/12 10:01:51;;;;;;;132.40;29.77;;;;;;;5.73;100.00;100753.38;15277541;19;20518;-76
2023/02/12 10:07:48;;;;;;;173.48;32.65;;;;;;;5.75;100.00;100759.50;15274144;19;20007;-76
2023/02/12 10:13:28;;;;;;;117.25;29.23;;;;;;;5.76;100.00;100755.91;15276327;19;20019;-76
2023/02/12 10:19:22;;;;;;;218.18;33.20;;;;;;;5.85;100.00;100766.16;15275665;19;20017;-77
2023/02/12 10:24:59;;;;;;;67.82;28.02;;;;;;;5.91;100.00;100764.16;15281784;19;20021;-77
2023/02/12 10:30:32;;;;;;;102.30;27.83;;;;;;;5.94;100.00;100775.56;15274393;19;20352;-76
2023/02/12 10:36:04;;;;;;;116.63;27.77;;;;;;;6.00;100.00;100771.75;15286746;19;20003;-79
2023/02/12 10:41:39;;;;;;;65.18;24.33;;;;;;;6.03;100.00;100768.94;15303618;19;20010;-76
2023/02/12 10:47:08;;;;;;;45.97;24.05;;;;;;;6.12;100.00;100781.88;15315372;19;20021;-77
2023/02/12 10:52:43;;;;;;;166.27;28.77;;;;;;;6.12;100.00;100779.19;15280044;19;20021;-76
2023/02/12 10:58:21;;;;;;;47.13;21.45;;;;;;;6.16;100.00;100771.88;14769715;19;10000446;-77
2023/02/12 11:03:56;;;;;;;53.72;22.10;;;;;;;6.22;100.00;100773.38;15282778;19;20017;-77
2023/02/12 11:09:30;;;;;;;48.15;22.02;;;;;;;6.19;100.00;100762.81;15291441;19;20017;-77
2023/02/12 11:15:00;;;;;;;64.65;23.38;;;;;;;6.23;100.00;100759.06;15296607;19;20079;-77
2023/02/12 11:20:31;;;;;;;56.45;22.88;;;;;;;6.30;100.00;100757.81;15290703;19;20015;-77
2023/02/12 11:26:04;;;;;;;55.63;22.70;;;;;;;6.34;100.00;100756.72;15294058;19;20022;-77
2023/02/12 11:31:30;;;;;;;85.35;22.98;;;;;;;6.38;100.00;100749.41;15291073;19;20035;-77
2023/02/12 11:37:00;;;;;;;47.38;22.50;;;;;;;6.42;100.00;100749.16;15292420;19;20467;-77
2023/02/12 11:42:28;;;;;;;36.03;20.98;;;;;;;6.45;100.00;100743.66;15295516;19;20066;-76
2023/02/12 11:47:52;;;;;;;36.42;20.45;;;;;;;6.52;100.00;100740.69;15291531;19;20020;-76
2023/02/12 11:53:26;;;;;;;34.92;21.80;;;;;;;6.58;100.00;100748.41;15287842;19;20054;-76
2023/02/12 11:58:54;;;;;;;31.10;19.67;;;;;;;6.66;100.00;100745.31;15286108;19;20021;-77
2023/02/12 12:04:24;;;;;;;28.58;18.95;;;;;;;6.69;100.00;100746.03;15281903;19;20031;-77
2023/02/12 12:09:57;;;;;;;27.20;18.40;;;;;;;6.72;100.00;100737.84;15282220;19;20106;-77
2023/02/12 12:21:09;;;;;;;22.95;16.02;;;;;;;6.75;100.00;100735.00;15282415;19;20030;-76
2023/02/12 12:26:37;;;;;;;22.58;16.38;;;;;;;6.78;100.00;100733.97;15282292;19;20021;-77
2023/02/12 12:32:07;;;;;;;22.35;16.10;;;;;;;6.78;100.00;100729.47;15283660;19;20010;-77
2023/02/12 12:37:42;;;;;;;21.23;15.50;;;;;;;6.84;100.00;100732.78;15296906;19;20018;-77
2023/02/12 12:43:22;;;;;;;17.80;12.90;;;;;;;6.87;100.00;100722.78;15289413;19;20409;-77
2023/02/12 12:49:15;;;;;;;15.27;11.20;;;;;;;6.82;100.00;100707.88;15280851;19;20030;-77
2023/02/12 12:54:55;;;;;;;13.73;11.15;;;;;;;6.87;100.00;100698.66;15025836;19;5012769;-77
2023/02/12 13:00:36;;;;;;;14.20;10.57;;;;;;;6.92;100.00;100691.25;15279034;19;20014;-77
2023/02/12 13:06:21;;;;;;;12.63;9.60;;;;;;;6.99;100.00;100682.88;15277763;19;20074;-77
2023/02/12 13:11:59;;;;;;;11.25;8.82;;;;;;;7.05;100.00;100672.69;15270937;19;20014;-77
2023/02/12 13:17:34;;;;;;;12.98;9.50;;;;;;;7.18;100.00;100655.94;15279687;19;20094;-76
2023/02/12 13:23:05;;;;;;;9.35;8.13;;;;;;;7.27;100.00;100643.84;15279935;19;20070;-77
2023/02/12 13:28:39;;;;;;;10.87;8.47;;;;;;;7.34;100.00;100637.16;15279220;19;20342;-77
2023/02/12 13:34:12;;;;;;;10.77;8.30;;;;;;;7.37;100.00;100624.44;15281762;19;20066;-76
2023/02/12 13:39:43;;;;;;;10.55;8.80;;;;;;;7.46;100.00;100622.22;15281508;19;20054;-76
2023/02/12 13:45:23;;;;;;;8.20;7.05;;;;;;;7.49;100.00;100612.19;15278390;19;20010;-76
2023/02/12 13:50:59;;;;;;;8.40;7.30;;;;;;;7.49;100.00;100593.41;15280558;19;20083;-76
2023/02/12 13:56:35;;;;;;;8.90;7.10;;;;;;;7.40;100.00;100567.97;15339402;19;20644;-77
2023/02/12 14:02:03;;;;;;;9.48;7.53;;;;;;;7.34;100.00;100562.97;15282478;19;20018;-76
2023/02/12 14:07:50;;;;;;;10.60;8.23;;;;;;;7.32;100.00;100563.97;15270974;19;20006;-77
2023/02/12 14:13:20;;;;;;;10.55;8.55;;;;;;;7.31;100.00;100568.50;15280117;19;20067;-77
2023/02/12 14:18:45;;;;;;;9.63;7.72;;;;;;;7.31;100.00;100573.84;15280658;19;20741;-77
2023/02/12 14:24:50;;;;;;;8.45;7.05;;;;;;;7.28;100.00;100571.34;15292522;19;20044;-78
2023/02/12 14:30:42;;;;;;;7.78;6.57;;;;;;;7.37;100.00;100562.75;15293279;19;20018;-79
2023/02/12 14:36:20;;;;;;;7.57;6.57;;;;;;;7.37;100.00;100559.22;15294913;19;20014;-78
2023/02/12 14:41:46;;;;;;;10.23;6.85;;;;;;;7.32;100.00;100559.50;15293975;19;20048;-78
2023/02/12 14:47:32;;;;;;;8.25;6.80;;;;;;;7.32;100.00;100567.53;15287411;19;20031;-80
2023/02/12 14:53:02;;;;;;;7.85;6.63;;;;;;;7.29;100.00;100566.84;15300435;19;20042;-80
2023/02/12 14:58:32;;;;;;;8.52;6.40;;;;;;;7.24;100.00;100569.78;15300191;19;20039;-80
2023/02/12 15:04:06;;;;;;;7.00;5.85;;;;;;;7.25;100.00;100566.16;15303756;19;20482;-79
2023/02/12 15:09:37;;;;;;;7.22;5.97;;;;;;;7.20;100.00;100568.25;15294946;19;20028;-80
2023/02/12 15:15:12;;;;;;;7.10;5.57;;;;;;;7.21;100.00;100561.94;15293600;19;20307;-80
2023/02/12 15:20:46;;;;;;;6.35;5.32;;;;;;;7.22;100.00;100560.97;15290993;19;20023;-79
2023/02/12 15:26:12;;;;;;;7.75;5.10;;;;;;;7.24;100.00;100559.94;15300505;19;20025;-81
2023/02/12 15:31:37;;;;;;;6.57;5.40;;;;;;;7.25;100.00;100568.81;15293500;19;20830;-78
2023/02/12 15:37:07;;;;;;;5.93;5.32;;;;;;;7.25;100.00;100560.78;15306669;19;20441;-80
2023/02/12 15:42:34;;;;;;;7.35;5.47;;;;;;;7.24;100.00;100559.06;15304654;19;20018;-79
2023/02/12 15:48:19;;;;;;;7.22;5.68;;;;;;;7.23;100.00;100560.03;15341466;19;20021;-80
2023/02/12 15:53:47;;;;;;;6.63;5.68;;;;;;;7.23;100.00;100565.38;15315886;19;20726;-81
2023/02/12 15:59:12;;;;;;;6.82;5.40;;;;;;;7.23;100.00;100568.91;15307598;19;20031;-80
2023/02/12 16:04:40;;;;;;;6.28;5.53;;;;;;;7.23;100.00;100565.38;15321086;19;20035;-81
2023/02/12 16:10:10;;;;;;;6.97;6.18;;;;;;;7.21;100.00;100564.59;15313358;19;20566;-80
2023/02/12 16:15:38;;;;;;;9.23;7.85;;;;;;;7.18;100.00;100564.78;15317157;19;20565;-80
2023/02/12 16:21:12;;;;;;;14.40;10.88;;;;;;;7.16;100.00;100566.66;15308327;19;20367;-78
2023/02/12 16:26:39;;;;;;;24.33;16.40;;;;;;;7.13;100.00;100564.16;15290299;19;20014;-79
2023/02/12 16:32:06;;;;;;;21.08;13.43;;;;;;;7.12;100.00;100570.47;15289544;19;20017;-78
2023/02/12 16:37:45;;;;;;;16.48;12.45;;;;;;;7.08;100.00;100581.38;15295320;19;20022;-79
2023/02/12 16:43:32;;;;;;;18.42;15.13;;;;;;;7.07;100.00;100586.81;15297731;19;20014;-78
2023/02/12 16:48:59;;;;;;;16.42;12.35;;;;;;;7.07;100.00;100595.72;15295211;19;20086;-79
2023/02/12 16:54:37;;;;;;;16.40;12.25;;;;;;;7.06;100.00;100593.13;15296827;19;20073;-80
2023/02/12 17:00:07;;;;;;;14.75;11.85;;;;;;;7.02;100.00;100605.81;15290974;19;20066;-80
2023/02/12 17:05:32;;;;;;;17.60;13.55;;;;;;;7.00;100.00;100605.03;15298248;19;20019;-80
2023/02/12 17:10:59;;;;;;;20.75;14.57;;;;;;;6.99;100.00;100607.81;15333910;19;20014;-84
2023/02/12 17:16:30;;;;;;;16.90;12.60;;;;;;;6.98;100.00;100609.66;15323899;19;20021;-82
2023/02/12 17:21:56;;;;;;;14.63;11.95;;;;;;;6.97;100.00;100624.00;15288428;19;20011;-80
2023/02/12 17:27:22;;;;;;;15.23;11.50;;;;;;;6.97;100.00;100625.78;15285682;19;20015;-81
2023/02/12 17:32:52;;;;;;;15.65;12.65;;;;;;;6.93;100.00;100611.69;15297498;19;20010;-81
2023/02/12 17:38:17;;;;;;;15.32;12.68;;;;;;;6.89;100.00;100615.47;15295171;19;20029;-80
2023/02/12 17:43:43;;;;;;;16.45;12.90;;;;;;;6.86;100.00;100621.88;15290855;19;20023;-80
2023/02/12 17:49:12;;;;;;;17.17;12.43;;;;;;;6.82;100.00;100614.09;15283095;19;20025;-83
2023/02/12 17:54:38;;;;;;;14.30;10.70;;;;;;;6.68;100.00;100609.50;15289935;19;20484;-79
2023/02/12 18:00:02;;;;;;;15.82;10.63;;;;;;;6.66;100.00;100609.56;15279610;19;20015;-80
2023/02/12 18:05:29;;;;;;;14.98;10.48;;;;;;;6.61;100.00;100603.59;15287732;19;20029;-81
2023/02/12 18:10:54;;;;;;;15.63;10.77;;;;;;;6.56;100.00;100608.31;15285337;19;20006;-82
2023/02/12 18:16:20;;;;;;;14.48;10.73;;;;;;;6.47;100.00;100612.34;15291087;19;20013;-81
2023/02/12 18:21:49;;;;;;;17.73;11.10;;;;;;;6.41;100.00;100624.25;15285155;19;20362;-80
2023/02/12 18:27:14;;;;;;;16.60;11.32;;;;;;;6.33;100.00;100621.09;15287970;19;20018;-79
2023/02/12 18:32:40;;;;;;;16.83;11.40;;;;;;;6.23;100.00;100635.91;15290151;19;20015;-81
2023/02/12 18:38:07;;;;;;;18.23;12.27;;;;;;;6.12;100.00;100629.31;15284727;19;20013;-79
2023/02/12 18:43:34;;;;;;;19.15;11.93;;;;;;;6.05;100.00;100643.06;15285619;19;20486;-83
2023/02/12 18:49:02;;;;;;;21.13;12.45;;;;;;;6.01;100.00;100637.88;15282978;19;20302;-78
2023/02/12 18:54:29;;;;;;;18.95;12.35;;;;;;;5.98;100.00;100645.16;15283459;19;20021;-79
2023/02/12 18:59:54;;;;;;;18.27;11.80;;;;;;;5.98;100.00;100643.38;15286550;19;20014;-79
2023/02/12 19:05:25;;;;;;;18.92;12.25;;;;;;;5.97;100.00;100648.78;15282893;19;20014;-81
2023/02/12 19:10:54;;;;;;;17.00;11.40;;;;;;;5.94;100.00;100644.44;15287321;19;20014;-80
2023/02/12 19:16:22;;;;;;;18.95;12.45;;;;;;;5.90;100.00;100644.69;15290625;19;20014;-81
2023/02/12 19:21:48;;;;;;;19.15;12.95;;;;;;;5.91;100.00;100647.28;15288442;19;20011;-80
2023/02/12 19:27:16;;;;;;;17.48;12.02;;;;;;;5.89;100.00;100646.47;15300294;19;20019;-81
2023/02/12 19:32:42;;;;;;;17.77;11.80;;;;;;;5.83;100.00;100660.16;15302340;19;20017;-81
2023/02/12 19:38:06;;;;;;;19.13;12.20;;;;;;;5.80;100.00;100669.22;15303447;19;20030;-79
2023/02/12 19:43:34;;;;;;;19.42;11.15;;;;;;;5.77;100.00;100672.03;15339492;19;20025;-81
2023/02/12 19:49:03;;;;;;;15.13;11.15;;;;;;;5.72;100.00;100671.38;15298052;19;20014;-82
2023/02/12 19:54:28;;;;;;;15.23;10.57;;;;;;;5.70;100.00;100665.25;15306897;19;20022;-82
2023/02/12 19:59:55;;;;;;;14.20;9.82;;;;;;;5.68;100.00;100659.97;15298239;19;20108;-82
2023/02/12 20:05:20;;;;;;;13.80;10.13;;;;;;;5.68;100.00;100653.78;15300314;19;20474;-82
2023/02/12 20:10:47;;;;;;;14.73;10.10;;;;;;;5.64;100.00;100649.50;15292587;19;20031;-81
2023/02/12 20:16:17;;;;;;;14.15;10.15;;;;;;;5.61;100.00;100657.66;15303737;19;20405;-81
2023/02/12 20:21:42;;;;;;;12.73;9.60;;;;;;;5.59;100.00;100654.19;15348286;19;20010;-83
2023/02/12 20:27:09;;;;;;;12.43;8.88;;;;;;;5.69;100.00;100658.19;15292234;19;20018;-83
2023/02/12 20:32:38;;;;;;;12.63;8.98;;;;;;;5.70;100.00;100665.25;15290096;19;20287;-84
2023/02/12 20:38:07;;;;;;;15.85;10.00;;;;;;;5.70;100.00;100655.41;15293401;19;20010;-84
2023/02/12 20:43:23;;;;;;;13.57;8.50;;;;;;;5.69;100.00;100659.03;15285781;19;20018;-85
2023/02/12 20:48:52;;;;;;;12.32;8.52;;;;;;;5.73;100.00;100649.03;15291382;19;20287;-83
2023/02/12 20:54:18;;;;;;;11.23;8.32;;;;;;;5.72;100.00;100647.31;15297253;19;20017;-81
2023/02/12 20:59:44;;;;;;;10.25;8.60;;;;;;;5.67;100.00;100644.00;15292004;19;20040;-83
2023/02/12 21:05:13;;;;;;;10.80;8.50;;;;;;;5.67;100.00;100644.00;15293265;19;20085;-83
2023/02/12 21:10:38;;;;;;;10.82;8.27;;;;;;;5.71;100.00;100641.09;15291471;19;20397;-82
2023/02/12 21:16:12;;;;;;;10.85;8.70;;;;;;;5.65;100.00;100640.53;15282212;19;20045;-83
2023/02/12 21:21:43;;;;;;;11.10;8.85;;;;;;;5.62;100.00;100641.56;15288114;19;20481;-83
2023/02/12 21:27:07;;;;;;;9.30;7.30;;;;;;;5.63;100.00;100643.28;15291379;19;20014;-84
2023/02/12 21:32:33;;;;;;;10.80;7.80;;;;;;;5.62;100.00;100635.31;15291102;19;20010;-82
2023/02/12 21:38:00;;;;;;;9.43;6.53;;;;;;;5.53;100.00;100626.81;15284581;19;20300;-84
2023/02/12 21:43:35;;;;;;;8.07;6.40;;;;;;;5.54;100.00;100623.22;15289387;19;20031;-81
2023/02/12 21:49:02;;;;;;;7.13;5.90;;;;;;;5.57;100.00;100626.69;15300563;19;20014;-82
2023/02/12 21:54:31;;;;;;;6.78;5.68;;;;;;;5.59;100.00;100630.13;15305481;19;20022;-83
2023/02/12 21:59:55;;;;;;;5.50;4.90;;;;;;;5.59;100.00;100622.97;15302465;19;20051;-82
2023/02/12 22:05:34;;;;;;;6.22;5.18;;;;;;;5.61;100.00;100620.22;15306156;19;20015;-82
2023/02/12 22:11:09;;;;;;;6.40;5.30;;;;;;;5.58;100.00;100617.72;15299654;19;20050;-83
2023/02/12 22:16:34;;;;;;;6.15;4.88;;;;;;;5.61;100.00;100606.84;15312180;19;20018;-83
2023/02/12 22:21:59;;;;;;;5.55;4.65;;;;;;;5.60;100.00;100610.47;15311328;19;20027;-81
2023/02/12 22:27:27;;;;;;;7.20;5.13;;;;;;;5.62;100.00;100613.94;15318552;19;20046;-82
2023/02/12 22:32:52;;;;;;;5.55;4.97;;;;;;;5.64;100.00;100612.06;15317607;19;20362;-83
2023/02/12 22:38:18;;;;;;;6.03;5.13;;;;;;;5.61;100.00;100622.91;15312398;19;20114;-83
2023/02/12 22:43:47;;;;;;;5.97;5.13;;;;;;;5.62;100.00;100624.63;15313354;19;20438;-81
2023/02/12 22:49:12;;;;;;;6.20;5.05;;;;;;;5.62;100.00;100621.97;15317741;19;20010;-82
2023/02/12 22:54:37;;;;;;;7.75;4.70;;;;;;;5.55;100.00;100603.56;15319707;19;20395;-81
2023/02/12 23:00:07;;;;;;;5.38;4.80;;;;;;;5.53;100.00;100616.13;15332545;19;20021;-81
2023/02/12 23:11:34;;;;;;;7.90;6.43;;;;;;;5.47;100.00;100624.44;15319719;19;20025;-83
2023/02/12 23:17:07;;;;;;;7.60;6.45;;;;;;;5.48;100.00;100628.84;15340958;19;20010;-83
2023/02/12 23:22:32;;;;;;;8.02;6.88;;;;;;;5.48;100.00;100622.63;15324711;19;20664;-84
2023/02/12 23:27:56;;;;;;;8.32;6.95;;;;;;;5.46;100.00;100620.06;15331817;19;20028;-82
2023/02/12 23:33:24;;;;;;;7.25;6.32;;;;;;;5.43;100.00;100609.50;15325285;19;20018;-83
2023/02/12 23:38:49;;;;;;;7.55;6.22;;;;;;;5.44;100.00;100605.00;15302757;19;20011;-84
2023/02/12 23:44:14;;;;;;;7.90;6.68;;;;;;;5.38;100.00;100603.50;15306587;19;20010;-83
2023/02/12 23:49:42;;;;;;;8.32;6.75;;;;;;;5.39;100.00;100607.91;15297956;19;20022;-83
2023/02/12 23:55:08;;;;;;;7.78;6.40;;;;;;;5.36;100.00;100603.59;15301420;19;20011;-82
